createdAt,value
2023-04-02T00:05:59.453Z,86.67
2023-04-02T00:11:19.008Z,86.68
2023-04-02T00:21:56.934Z,87.17
2023-04-02T00:32:35.325Z,87.41
2023-04-02T00:37:54.325Z,87.49
2023-04-02T00:48:32.838Z,87.51
2023-04-02T00:59:11.341Z,87.93
2023-04-02T01:04:30.313Z,88.04
2023-04-02T01:15:08.014Z,88.5
2023-04-02T01:20:27.764Z,88.74
2023-04-02T01:31:06.422Z,89.19
2023-04-02T01:41:44.999Z,89.71
2023-04-02T01:47:03.915Z,89.99
2023-04-02T01:57:42.718Z,90.5
2023-04-02T02:03:02.265Z,90.56
2023-04-02T02:13:42.081Z,90.93
2023-04-02T02:19:00.173Z,91.05
2023-04-02T02:24:19.733Z,91.23
2023-04-02T02:29:39.061Z,91.15
2023-04-02T02:40:17.590Z,91.38
2023-04-02T02:50:56.036Z,91.3
2023-04-02T02:56:15.383Z,91.44
2023-04-02T03:06:54.006Z,91.58
2023-04-02T03:12:13.477Z,91.69
2023-04-02T03:17:32.860Z,91.68
2023-04-02T03:22:52.237Z,91.82
2023-04-02T03:33:30.660Z,92.26
2023-04-02T03:38:49.879Z,92.36
2023-04-02T03:49:28.023Z,92.69
2023-04-02T03:54:53.489Z,92.66
2023-04-02T04:00:05.810Z,92.77
2023-04-02T04:05:25.461Z,92.89
2023-04-02T04:16:03.973Z,93.07
2023-04-02T04:21:23.281Z,93.08
2023-04-02T04:32:01.307Z,93.08
2023-04-02T04:37:20.533Z,93.09
2023-04-02T04:42:40.241Z,93.19
2023-04-02T04:47:59.173Z,93.14
2023-04-02T04:58:37.768Z,92.9
2023-04-02T05:03:57.435Z,92.9
2023-04-02T05:14:35.542Z,92.7
2023-04-02T05:19:55.202Z,92.61
2023-04-02T05:30:33.897Z,92.63
2023-04-02T05:41:12.590Z,92.72
2023-04-02T05:46:31.571Z,92.5
2023-04-02T05:57:10.665Z,92.02
2023-04-02T06:02:30.560Z,91.94
2023-04-02T06:13:08.904Z,91.47
2023-04-02T06:18:28.124Z,91.29
2023-04-02T06:23:47.390Z,91.05
2023-04-02T06:29:06.798Z,90.63
2023-04-02T06:39:45.225Z,90.9
2023-04-02T06:45:04.600Z,90.56
2023-04-02T06:55:43.357Z,90.59
2023-04-02T07:01:03.036Z,91
2023-04-02T07:12:06.442Z,90.14
2023-04-02T07:17:25.412Z,90.85
2023-04-02T07:28:03.386Z,90.66
2023-04-02T07:33:22.578Z,90.21
2023-04-02T07:44:00.740Z,89.23
2023-04-02T07:54:39.349Z,89.18
2023-04-02T07:59:58.173Z,88.34
2023-04-02T08:10:37.566Z,88.35
2023-04-02T08:15:56.565Z,88.53
2023-04-02T08:26:35.808Z,89.12
2023-04-02T08:31:54.897Z,88.47
2023-04-02T08:42:33.375Z,93.66
2023-04-02T08:53:11.495Z,94.23
2023-04-02T08:58:31.035Z,94.23
2023-04-02T09:09:10.170Z,93.09
2023-04-02T09:14:29.546Z,93.29
2023-04-02T09:19:49.269Z,93.96
2023-04-02T09:25:08.754Z,94.56
2023-04-02T09:30:27.664Z,93.34
2023-04-02T09:35:47.182Z,94.02
2023-04-02T09:46:25.317Z,93.11
2023-04-02T09:51:44.514Z,92.66
2023-04-02T10:02:22.624Z,90.71
2023-04-02T10:13:01.779Z,91.7
2023-04-02T10:18:21.314Z,92.39
2023-04-02T10:28:59.375Z,93.02
2023-04-02T10:34:18.153Z,93.47
2023-04-02T10:44:56.481Z,93.34
2023-04-02T11:00:53.867Z,93.15
2023-04-02T11:11:31.438Z,92.1
2023-04-02T11:16:50.680Z,92.11
2023-04-02T11:27:29.321Z,91.36
2023-04-02T11:32:49.295Z,91.57
2023-04-02T11:43:27.579Z,90.75
2023-04-02T11:54:05.392Z,87.93
2023-04-02T11:59:24.926Z,87.67
2023-04-02T12:10:02.976Z,86.67
2023-04-02T12:15:22.720Z,85.29
2023-04-02T12:26:00.564Z,83.83
2023-04-02T12:31:19.833Z,84.51
2023-04-02T12:36:39.097Z,83.72
2023-04-02T12:41:58.311Z,84.53
2023-04-02T12:52:36.595Z,84.25
2023-04-02T12:57:55.758Z,84.3
2023-04-02T13:03:14.822Z,83.83
2023-04-02T13:08:34.223Z,84.64
2023-04-02T13:13:53.933Z,84.15
2023-04-02T13:19:13.166Z,84.2
2023-04-02T13:24:32.351Z,82.01
2023-04-02T13:35:10.910Z,82.13
2023-04-02T13:40:30.567Z,82.44
2023-04-02T13:51:09.465Z,80.94
2023-04-02T13:56:28.980Z,80.67
2023-04-02T14:07:06.342Z,81.76
2023-04-02T14:17:45.051Z,81.62
2023-04-02T14:23:04.523Z,82.24
2023-04-02T14:33:42.912Z,80.98
2023-04-02T14:39:02.108Z,80.14
2023-04-02T14:49:39.872Z,80.12
2023-04-02T15:00:18.430Z,81.26
2023-04-02T15:05:38.516Z,80.67
2023-04-02T15:16:17.056Z,81.04
2023-04-02T15:21:38.835Z,80.1
2023-04-02T15:32:14.336Z,79.81
2023-04-02T15:42:52.943Z,81.03
2023-04-02T15:48:11.637Z,82.73
2023-04-02T15:58:58.141Z,80.33
2023-04-02T16:04:10.604Z,79.87
2023-04-02T16:20:07.408Z,80.21
2023-04-02T16:25:26.826Z,77.26
2023-04-02T16:36:04.836Z,76.55
2023-04-02T16:41:24.152Z,76.46
2023-04-02T16:52:02.356Z,75.53
2023-04-02T17:02:41.681Z,75.5
2023-04-02T17:08:00.544Z,75.74
2023-04-02T17:18:38.250Z,73.72
2023-04-02T17:23:57.554Z,74.8
2023-04-02T17:34:36.302Z,74.19
2023-04-02T17:39:55.710Z,74.97
2023-04-02T17:45:15.221Z,74.71
2023-04-02T17:50:35.337Z,74.76
2023-04-02T18:01:13.692Z,74.71
2023-04-02T18:06:32.546Z,75.47
2023-04-02T18:17:10.427Z,76.26
2023-04-02T18:22:30.727Z,76.08
2023-04-02T18:33:08.539Z,74.33
2023-04-02T18:43:46.915Z,75.12
2023-04-02T18:49:06.578Z,75.14
2023-04-02T18:59:45.533Z,76.04
2023-04-02T19:05:04.364Z,76.26
2023-04-02T19:15:43.039Z,75.31
2023-04-02T19:26:20.633Z,75.19
2023-04-02T19:31:40.037Z,75.37
2023-04-02T19:42:19.264Z,76.19
2023-04-02T19:47:38.557Z,75.92
2023-04-02T19:58:19.432Z,75.97
2023-04-02T20:14:15.181Z,75.44
2023-04-02T20:24:52.820Z,74.32
2023-04-02T20:30:12.207Z,74.08
2023-04-02T20:40:51.892Z,72.92
2023-04-02T20:56:49.435Z,70.22
2023-04-02T21:07:27.405Z,70.24
2023-04-02T21:12:47.271Z,70.33
2023-04-02T21:23:25.214Z,70.07
2023-04-02T21:39:23.468Z,70.08
2023-04-02T21:50:02.739Z,71.31
2023-04-02T21:55:22.547Z,71.94
2023-04-02T22:06:00.681Z,72.94
2023-04-02T22:11:20.246Z,73.49
2023-04-02T22:21:58.513Z,74.32
2023-04-02T22:32:36.741Z,74.81
2023-04-02T22:37:55.870Z,73.81
2023-04-02T22:48:33.527Z,74.22
2023-04-02T22:53:52.949Z,73.73
2023-04-02T22:59:12.510Z,73.87
2023-04-02T23:09:50.321Z,73.96
2023-04-02T23:15:09.489Z,73.64
2023-04-02T23:25:48.271Z,73.61
2023-04-02T23:31:07.382Z,73.42
2023-04-02T23:41:46.032Z,73.57
2023-04-02T23:52:24.595Z,73.29
2023-04-02T23:57:43.951Z,72.32
